This is the latest recevied weather packets stored in our database for station/object K8RRT. If no packets are shown the sender has not sent any weather packets the latest 10 day(s).
| Time | Temp. | Humidity | Pressure | Rain* | Wind** | Luminosity | Snow |
|---|---|---|---|---|---|---|---|
| 1777904468 | 13.33° C | 83% | 1009.7 hPa | 0 mm | - | 229 W/m² | - |
| 1777904164 | 12.78° C | 82% | 1009.5 hPa | 1.78 mm | - | 252 W/m² | - |
| 1777903862 | 12.78° C | 82% | 1009.7 hPa | 1.78 mm | - | 162 W/m² | - |
| 1777903558 | 12.78° C | 82% | 1010 hPa | 1.27 mm | - | 74 W/m² | - |
| 1777903254 | 13.33° C | 80% | 1010.1 hPa | 1.27 mm | - | 62 W/m² | - |
| 1777902951 | 13.89° C | 72% | 1010.1 hPa | 0 mm | - | 32 W/m² | - |
| 1777902648 | 13.89° C | 71% | 1010.1 hPa | 0 mm | - | 51 W/m² | - |
| 1777902345 | 13.89° C | 70% | 1009.8 hPa | 0 mm | - | 130 W/m² | - |
| 1777902042 | 13.89° C | 70% | 1009.8 hPa | 0 mm | - | 82 W/m² | - |
| 1777901740 | 14.44° C | 69% | 1009.7 hPa | 0 mm | - | 68 W/m² | - |
| 1777901437 | 14.44° C | 68% | 1009.8 hPa | 0 mm | - | 121 W/m² | - |
| 1777901135 | 14.44° C | 68% | 1009.8 hPa | 0 mm | - | 128 W/m² | - |
| 1777900832 | 13.89° C | 68% | 1009.7 hPa | 0 mm | - | 140 W/m² | - |
| 1777900529 | 13.89° C | 67% | 1009.7 hPa | 0 mm | - | 94 W/m² | - |
| 1777900226 | 13.89° C | 66% | 1009.3 hPa | 0 mm | - | 120 W/m² | - |
| 1777899922 | 13.89° C | 67% | 1009.4 hPa | 0 mm | - | 115 W/m² | - |
| 1777899620 | 13.89° C | 66% | 1009.2 hPa | 0 mm | - | 133 W/m² | - |
| 1777899317 | 13.89° C | 66% | 1009.4 hPa | 0 mm | - | 143 W/m² | - |
| 1777899015 | 13.89° C | 65% | 1009.3 hPa | 0 mm | - | 143 W/m² | - |
| 1777898711 | 13.33° C | 64% | 1009.2 hPa | 0 mm | - | 140 W/m² | - |
| 1777898409 | 13.33° C | 65% | 1009.3 hPa | 0 mm | - | 133 W/m² | - |
| 1777898107 | 12.78° C | 65% | 1009.4 hPa | 0 mm | - | 124 W/m² | - |
| 1777897803 | 12.78° C | 66% | 1009.4 hPa | 0 mm | - | 106 W/m² | - |
| 1777897499 | 12.78° C | 66% | 1009.5 hPa | 0 mm | - | 101 W/m² | - |
| 1777897195 | 12.78° C | 65% | 1009.3 hPa | 0 mm | - | 74 W/m² | - |
* Rain latest hour (hover to see other rain measurements)
** Current wind speed in m/s (hover to see current wind gust speed)